Time,TemperatureF,DewpointF,PressureIn,WindDirection,WindDirectionDegrees,WindSpeedMPH,WindSpeedGustMPH,Humidity,HourlyPrecipIn,Conditions,Clouds,dailyrainin,SoftwareType,DateUTC
2013-02-01 00:02:00,30.6,20.5,29.91,North,0,1.1,3.1,66,0.00,,,0.00,WUHU216HW,2013-02-01 05:02:00,
2013-02-01 00:07:00,30.6,20.5,29.91,NNW,338,0.2,1.1,66,0.00,,,0.00,WUHU216HW,2013-02-01 05:07:00,
2013-02-01 00:12:00,30.8,20.7,29.90,NW,315,0.0,1.3,66,0.00,,,0.00,WUHU216HW,2013-02-01 05:12:00,
2013-02-01 00:17:00,31.0,20.9,29.89,NNW,338,0.4,1.3,66,0.00,,,0.00,WUHU216HW,2013-02-01 05:17:00,
2013-02-01 00:22:00,31.1,21.1,29.90,North,0,0.7,1.8,66,0.00,,,0.00,WUHU216HW,2013-02-01 05:22:00,
2013-02-01 00:27:00,31.3,21.2,29.90,WSW,248,1.1,1.8,66,0.00,,,0.00,WUHU216HW,2013-02-01 05:27:00,
2013-02-01 00:32:00,31.3,21.2,29.90,West,270,0.4,1.1,66,0.00,,,0.00,WUHU216HW,2013-02-01 05:32:00,
2013-02-01 00:37:00,31.7,21.6,29.90,NNW,338,0.9,2.0,66,0.00,,,0.00,WUHU216HW,2013-02-01 05:37:00,
2013-02-01 00:42:00,31.9,21.8,29.90,NNW,338,1.1,2.0,66,0.00,,,0.00,WUHU216HW,2013-02-01 05:42:00,
2013-02-01 00:47:00,32.0,21.6,29.90,NE,45,1.6,2.0,65,0.00,,,0.00,WUHU216HW,2013-02-01 05:47:00,
2013-02-01 00:52:00,32.8,21.9,29.90,NNW,338,0.4,3.6,64,0.00,,,0.00,WUHU216HW,2013-02-01 05:52:00,
2013-02-01 00:57:00,32.8,21.9,29.89,NNW,338,1.1,3.6,64,0.00,,,0.00,WUHU216HW,2013-02-01 05:57:00,
2013-02-01 01:02:00,32.9,21.7,29.91,NNE,23,1.1,3.4,63,0.00,,,0.00,WUHU216HW,2013-02-01 06:02:00,
2013-02-01 01:07:00,33.1,21.9,29.90,NW,315,1.8,3.4,63,0.00,,,0.00,WUHU216HW,2013-02-01 06:07:00,
2013-02-01 01:12:00,33.3,22.1,29.89,NW,315,0.4,2.5,63,0.00,,,0.00,WUHU216HW,2013-02-01 06:12:00,
2013-02-01 01:17:00,33.3,22.1,29.89,North,0,2.5,3.4,63,0.00,,,0.00,WUHU216HW,2013-02-01 06:17:00,
2013-02-01 01:22:00,33.5,22.1,29.88,North,0,1.8,3.4,63,0.00,,,0.00,WUHU216HW,2013-02-01 06:22:00,
2013-02-01 01:27:00,33.5,22.1,29.88,WSW,248,1.6,2.2,63,0.00,,,0.00,WUHU216HW,2013-02-01 06:27:00,
2013-02-01 01:32:00,33.5,21.8,29.89,West,270,0.7,2.5,62,0.00,,,0.00,WUHU216HW,2013-02-01 06:32:00,
2013-02-01 01:37:00,33.7,22.0,29.88,North,0,4.7,4.7,62,0.00,,,0.00,WUHU216HW,2013-02-01 06:37:00,
2013-02-01 01:42:00,34.0,22.3,29.88,North,0,2.9,5.6,62,0.00,,,0.00,WUHU216HW,2013-02-01 06:42:00,
2013-02-01 01:47:00,34.0,22.3,29.87,NNW,338,1.8,5.6,62,0.00,,,0.00,WUHU216HW,2013-02-01 06:47:00,
2013-02-01 01:52:00,34.0,22.3,29.89,West,270,0.4,2.5,62,0.00,,,0.00,WUHU216HW,2013-02-01 06:52:00,
2013-02-01 01:57:00,34.2,22.9,29.88,North,0,2.7,2.7,63,0.00,,,0.00,WUHU216HW,2013-02-01 06:57:00,
2013-02-01 02:02:00,34.2,22.9,29.89,NNW,338,0.4,2.7,63,0.00,,,0.00,WUHU216HW,2013-02-01 07:02:00,
2013-02-01 02:07:00,34.2,22.9,29.88,North,0,1.6,2.7,63,0.00,,,0.00,WUHU216HW,2013-02-01 07:07:00,
2013-02-01 02:12:00,34.2,22.9,29.87,NW,315,0.4,3.4,63,0.00,,,0.00,WUHU216HW,2013-02-01 07:12:00,
2013-02-01 02:17:00,34.2,23.2,29.87,WNW,293,0.4,3.4,64,0.00,,,0.00,WUHU216HW,2013-02-01 07:17:00,
2013-02-01 02:22:00,34.2,23.2,29.87,West,270,1.6,2.7,64,0.00,,,0.00,WUHU216HW,2013-02-01 07:22:00,
2013-02-01 02:27:00,34.2,23.2,29.88,WNW,293,1.8,2.5,64,0.00,,,0.00,WUHU216HW,2013-02-01 07:27:00,
2013-02-01 02:32:00,34.4,23.4,29.88,NW,315,0.4,2.9,64,0.00,,,0.00,WUHU216HW,2013-02-01 07:32:00,
2013-02-01 02:37:00,34.4,23.4,29.88,NW,315,0.4,2.9,64,0.00,,,0.00,WUHU216HW,2013-02-01 07:37:00,
2013-02-01 02:42:00,34.4,23.8,29.88,North,0,1.1,2.2,65,0.00,,,0.00,WUHU216HW,2013-02-01 07:42:00,
2013-02-01 02:47:00,34.4,23.8,29.87,NNE,23,1.6,2.5,65,0.00,,,0.00,WUHU216HW,2013-02-01 07:47:00,
2013-02-01 02:52:00,34.4,23.8,29.87,NW,315,1.1,4.0,65,0.00,,,0.00,WUHU216HW,2013-02-01 07:52:00,
2013-02-01 02:57:00,34.4,23.8,29.87,West,270,2.0,4.0,65,0.00,,,0.00,WUHU216HW,2013-02-01 07:57:00,
2013-02-01 03:02:00,34.4,23.8,29.87,West,270,2.7,3.6,65,0.00,,,0.00,WUHU216HW,2013-02-01 08:02:00,
2013-02-01 03:07:00,34.4,24.1,29.87,North,0,2.5,3.4,66,0.00,,,0.00,WUHU216HW,2013-02-01 08:07:00,
2013-02-01 03:12:00,34.4,24.1,29.87,West,270,2.7,3.8,66,0.00,,,0.00,WUHU216HW,2013-02-01 08:12:00,
2013-02-01 03:17:00,34.4,24.1,29.87,WNW,293,3.8,3.8,66,0.00,,,0.00,WUHU216HW,2013-02-01 08:17:00,
2013-02-01 03:22:00,34.2,24.3,29.86,NNW,338,1.6,3.8,67,0.00,,,0.00,WUHU216HW,2013-02-01 08:22:00,
2013-02-01 03:27:00,34.2,24.3,29.86,North,0,2.5,2.7,67,0.00,,,0.00,WUHU216HW,2013-02-01 08:27:00,
2013-02-01 03:32:00,34.2,24.3,29.87,NW,315,0.2,3.4,67,0.00,,,0.00,WUHU216HW,2013-02-01 08:32:00,
2013-02-01 03:37:00,34.2,24.7,29.87,SSW,203,0.2,3.4,68,0.00,,,0.00,WUHU216HW,2013-02-01 08:37:00,
2013-02-01 03:42:00,34.0,24.8,29.86,WNW,293,0.9,3.4,69,0.00,,,0.00,WUHU216HW,2013-02-01 08:42:00,
2013-02-01 03:47:00,33.8,24.7,29.85,NNE,23,4.5,4.5,69,0.00,,,0.00,WUHU216HW,2013-02-01 08:47:00,
2013-02-01 03:52:00,33.7,24.8,29.85,NNE,23,0.9,4.5,70,0.00,,,0.00,WUHU216HW,2013-02-01 08:52:00,
2013-02-01 03:57:00,33.5,24.3,29.84,NW,315,1.1,2.9,69,0.00,,,0.00,WUHU216HW,2013-02-01 08:57:00,
2013-02-01 04:02:00,33.5,24.3,29.85,North,0,2.0,3.4,69,0.00,,,0.00,WUHU216HW,2013-02-01 09:02:00,
2013-02-01 04:07:00,33.5,24.7,29.85,SW,225,1.8,3.4,70,0.00,,,0.00,WUHU216HW,2013-02-01 09:07:00,
2013-02-01 04:12:00,33.3,24.6,29.85,NNW,338,0.7,2.5,70,0.00,,,0.00,WUHU216HW,2013-02-01 09:12:00,
2013-02-01 04:17:00,33.1,24.7,29.84,West,270,1.8,2.9,71,0.00,,,0.00,WUHU216HW,2013-02-01 09:17:00,
2013-02-01 04:22:00,33.1,24.7,29.84,NNW,338,1.3,2.9,71,0.00,,,0.00,WUHU216HW,2013-02-01 09:22:00,
2013-02-01 04:27:00,32.9,24.8,29.84,North,0,0.9,4.3,72,0.00,,,0.00,WUHU216HW,2013-02-01 09:27:00,
2013-02-01 04:32:00,32.8,25.4,29.85,NNW,338,0.9,4.3,74,0.00,,,0.00,WUHU216HW,2013-02-01 09:32:00,
2013-02-01 04:37:00,32.4,25.7,29.84,West,270,0.9,3.4,76,0.00,,,0.00,WUHU216HW,2013-02-01 09:37:00,
2013-02-01 04:42:00,31.9,25.8,29.86,NW,315,0.0,3.4,78,0.00,,,0.00,WUHU216HW,2013-02-01 09:42:00,
2013-02-01 04:47:00,31.5,25.7,29.85,WNW,293,0.7,1.6,79,0.00,,,0.00,WUHU216HW,2013-02-01 09:47:00,
2013-02-01 04:52:00,31.3,25.6,29.84,WNW,293,0.7,1.6,79,0.00,,,0.00,WUHU216HW,2013-02-01 09:52:00,
2013-02-01 04:57:00,31.0,25.8,29.86,WNW,293,3.1,3.1,81,0.00,,,0.00,WUHU216HW,2013-02-01 09:57:00,
2013-02-01 05:02:00,30.6,25.5,29.86,WNW,293,0.4,3.1,81,0.00,,,0.00,WUHU216HW,2013-02-01 10:02:00,
2013-02-01 05:07:00,30.2,25.4,29.87,WNW,293,0.0,1.1,82,0.00,,,0.00,WUHU216HW,2013-02-01 10:07:00,
2013-02-01 05:12:00,29.9,25.4,29.86,WNW,293,0.9,2.2,83,0.00,,,0.00,WUHU216HW,2013-02-01 10:12:00,
2013-02-01 05:17:00,29.9,25.4,29.85,WNW,293,1.1,2.2,83,0.00,,,0.00,WUHU216HW,2013-02-01 10:17:00,
2013-02-01 05:22:00,29.5,25.0,29.87,WNW,293,0.9,2.2,83,0.00,,,0.00,WUHU216HW,2013-02-01 10:22:00,
2013-02-01 05:27:00,29.3,24.9,29.87,WNW,293,0.7,2.2,83,0.00,,,0.00,WUHU216HW,2013-02-01 10:27:00,
2013-02-01 05:32:00,29.2,24.7,29.87,WNW,293,1.6,2.0,83,0.00,,,0.00,WUHU216HW,2013-02-01 10:32:00,
2013-02-01 05:37:00,29.0,24.5,29.86,WNW,293,0.9,2.0,83,0.00,,,0.00,WUHU216HW,2013-02-01 10:37:00,
2013-02-01 05:42:00,28.8,24.3,29.87,WNW,293,0.9,2.0,83,0.00,,,0.00,WUHU216HW,2013-02-01 10:42:00,
2013-02-01 05:47:00,28.6,23.8,29.87,WNW,293,1.8,2.5,82,0.00,,,0.00,WUHU216HW,2013-02-01 10:47:00,
2013-02-01 05:52:00,28.4,22.4,29.89,WNW,293,1.6,2.5,78,0.00,,,0.00,WUHU216HW,2013-02-01 10:52:00,
2013-02-01 05:57:00,28.3,21.6,29.87,WNW,293,1.1,2.7,76,0.00,,,0.00,WUHU216HW,2013-02-01 10:57:00,
2013-02-01 06:02:00,27.9,21.2,29.88,WNW,293,1.6,2.7,76,0.00,,,0.00,WUHU216HW,2013-02-01 11:02:00,
2013-02-01 06:07:00,27.4,20.4,29.88,WNW,293,0.4,3.1,75,0.00,,,0.00,WUHU216HW,2013-02-01 11:07:00,
2013-02-01 06:12:00,26.8,19.6,29.89,WNW,293,1.6,3.1,74,0.00,,,0.00,WUHU216HW,2013-02-01 11:12:00,
2013-02-01 06:17:00,26.3,19.1,29.89,WNW,293,4.0,4.0,74,0.00,,,0.00,WUHU216HW,2013-02-01 11:17:00,
2013-02-01 06:22:00,25.7,17.9,29.89,WNW,293,2.5,4.0,72,0.00,,,0.00,WUHU216HW,2013-02-01 11:22:00,
2013-02-01 06:27:00,25.2,17.1,29.88,WNW,293,2.7,2.7,71,0.00,,,0.00,WUHU216HW,2013-02-01 11:27:00,
2013-02-01 06:33:00,24.7,15.6,29.90,WNW,293,2.0,3.6,68,0.00,,,0.00,WUHU216HW,2013-02-01 11:33:00,
2013-02-01 06:38:00,24.1,14.3,29.90,WNW,293,0.4,3.6,66,0.00,,,0.00,WUHU216HW,2013-02-01 11:38:00,
2013-02-01 06:43:00,23.8,12.6,29.90,WNW,293,2.5,2.9,62,0.00,,,0.00,WUHU216HW,2013-02-01 11:43:00,
2013-02-01 06:48:00,23.2,11.7,29.91,WNW,293,2.5,2.5,61,0.00,,,0.00,WUHU216HW,2013-02-01 11:48:00,
2013-02-01 06:53:00,22.7,11.2,29.91,WNW,293,1.1,3.8,61,0.00,,,0.00,WUHU216HW,2013-02-01 11:53:00,
2013-02-01 06:58:00,22.5,11.3,29.91,WNW,293,0.4,3.8,62,0.00,,,0.00,WUHU216HW,2013-02-01 11:58:00,
2013-02-01 07:03:00,22.1,11.4,29.91,WNW,293,0.9,2.0,63,0.00,,,0.00,WUHU216HW,2013-02-01 12:03:00,
2013-02-01 07:08:00,22.0,11.3,29.91,WNW,293,0.4,3.4,63,0.00,,,0.00,WUHU216HW,2013-02-01 12:08:00,
2013-02-01 07:13:00,21.8,11.4,29.91,WNW,293,0.4,3.4,64,0.00,,,0.00,WUHU216HW,2013-02-01 12:13:00,
2013-02-01 07:18:00,21.6,10.9,29.91,WNW,293,0.4,2.2,63,0.00,,,0.00,WUHU216HW,2013-02-01 12:18:00,
2013-02-01 07:23:00,21.2,10.5,29.92,WNW,293,0.7,2.2,63,0.00,,,0.00,WUHU216HW,2013-02-01 12:23:00,
2013-02-01 07:28:00,21.1,9.7,29.90,WNW,293,2.0,2.0,61,0.00,,,0.00,WUHU216HW,2013-02-01 12:28:00,
2013-02-01 07:33:00,20.9,8.7,29.92,WNW,293,2.2,2.2,59,0.00,,,0.00,WUHU216HW,2013-02-01 12:33:00,
2013-02-01 07:38:00,20.7,8.2,29.92,WNW,293,1.1,2.2,58,0.00,,,0.00,WUHU216HW,2013-02-01 12:38:00,
2013-02-01 07:43:00,20.7,8.6,29.92,WNW,293,2.5,2.7,59,0.00,,,0.00,WUHU216HW,2013-02-01 12:43:00,
2013-02-01 07:48:00,20.5,8.4,29.92,WNW,293,1.1,2.7,59,0.00,,,0.00,WUHU216HW,2013-02-01 12:48:00,
2013-02-01 07:53:00,20.3,7.8,29.92,WNW,293,0.2,1.6,58,0.00,,,0.00,WUHU216HW,2013-02-01 12:53:00,
2013-02-01 07:58:00,20.2,7.3,29.92,WNW,293,1.1,2.5,57,0.00,,,0.00,WUHU216HW,2013-02-01 12:58:00,
2013-02-01 08:03:00,20.2,7.7,29.94,WNW,293,1.6,2.5,58,0.00,,,0.00,WUHU216HW,2013-02-01 13:03:00,
2013-02-01 08:08:00,20.2,7.7,29.93,WNW,293,1.1,2.7,58,0.00,,,0.00,WUHU216HW,2013-02-01 13:08:00,
2013-02-01 08:13:00,20.2,8.1,29.94,WNW,293,0.4,2.7,59,0.00,,,0.00,WUHU216HW,2013-02-01 13:13:00,
2013-02-01 08:18:00,20.0,7.5,29.95,WNW,293,1.3,1.8,58,0.00,,,0.00,WUHU216HW,2013-02-01 13:18:00,
2013-02-01 08:23:00,20.0,7.5,29.95,WNW,293,1.1,1.6,58,0.00,,,0.00,WUHU216HW,2013-02-01 13:23:00,
2013-02-01 08:28:00,20.0,7.5,29.94,WNW,293,1.1,1.3,58,0.00,,,0.00,WUHU216HW,2013-02-01 13:28:00,
2013-02-01 08:33:00,20.0,7.1,29.95,WNW,293,0.9,1.8,57,0.00,,,0.00,WUHU216HW,2013-02-01 13:33:00,
2013-02-01 08:38:00,20.0,6.7,29.95,WNW,293,0.7,2.9,56,0.00,,,0.00,WUHU216HW,2013-02-01 13:38:00,
2013-02-01 08:43:00,19.8,6.5,29.96,WNW,293,0.9,2.9,56,0.00,,,0.00,WUHU216HW,2013-02-01 13:43:00,
2013-02-01 08:48:00,19.8,6.9,29.96,WNW,293,1.1,1.6,57,0.00,,,0.00,WUHU216HW,2013-02-01 13:48:00,
2013-02-01 08:53:00,20.0,6.7,29.96,WNW,293,0.7,2.5,56,0.00,,,0.00,WUHU216HW,2013-02-01 13:53:00,
2013-02-01 08:58:00,19.8,6.5,29.97,WNW,293,1.1,2.5,56,0.00,,,0.00,WUHU216HW,2013-02-01 13:58:00,
2013-02-01 09:03:00,20.0,6.3,29.96,WNW,293,1.6,2.5,55,0.00,,,0.00,WUHU216HW,2013-02-01 14:03:00,
2013-02-01 09:08:00,20.0,6.3,29.97,WNW,293,2.5,2.5,55,0.00,,,0.00,WUHU216HW,2013-02-01 14:08:00,
2013-02-01 09:13:00,20.2,6.5,29.98,WNW,293,1.1,2.9,55,0.00,,,0.00,WUHU216HW,2013-02-01 14:13:00,
2013-02-01 09:18:00,20.2,6.5,29.97,WNW,293,0.9,2.9,55,0.00,,,0.00,WUHU216HW,2013-02-01 14:18:00,
2013-02-01 09:23:00,20.5,6.8,29.97,WNW,293,0.2,1.8,55,0.00,,,0.00,WUHU216HW,2013-02-01 14:23:00,
2013-02-01 09:28:00,20.5,6.8,29.98,WNW,293,0.7,1.8,55,0.00,,,0.00,WUHU216HW,2013-02-01 14:28:00,
2013-02-01 09:33:00,20.7,6.9,29.99,WNW,293,2.2,2.2,55,0.00,,,0.00,WUHU216HW,2013-02-01 14:33:00,
2013-02-01 09:38:00,20.9,6.8,29.99,WNW,293,0.7,2.2,54,0.00,,,0.00,WUHU216HW,2013-02-01 14:38:00,
2013-02-01 09:43:00,20.9,6.3,30.00,WNW,293,0.9,2.5,53,0.00,,,0.00,WUHU216HW,2013-02-01 14:43:00,
2013-02-01 09:48:00,20.9,7.1,30.00,WNW,293,0.9,2.5,55,0.00,,,0.00,WUHU216HW,2013-02-01 14:48:00,
2013-02-01 09:53:00,21.1,6.9,29.99,WNW,293,1.3,1.3,54,0.00,,,0.00,WUHU216HW,2013-02-01 14:53:00,
2013-02-01 09:58:00,21.1,6.5,30.00,WNW,293,0.4,2.2,53,0.00,,,0.00,WUHU216HW,2013-02-01 14:58:00,
2013-02-01 10:03:00,21.1,6.5,30.00,WNW,293,1.8,2.2,53,0.00,,,0.00,WUHU216HW,2013-02-01 15:03:00,
2013-02-01 10:08:00,21.2,6.2,29.97,WNW,293,0.7,1.8,52,0.00,,,0.00,WUHU216HW,2013-02-01 15:08:00,
2013-02-01 10:13:00,21.2,6.2,29.97,WNW,293,0.2,2.5,52,0.00,,,0.00,WUHU216HW,2013-02-01 15:13:00,
2013-02-01 10:18:00,21.4,6.0,29.97,WNW,293,0.4,2.5,51,0.00,,,0.00,WUHU216HW,2013-02-01 15:18:00,
2013-02-01 10:23:00,21.6,5.8,29.97,WNW,293,0.4,2.5,50,0.00,,,0.00,WUHU216HW,2013-02-01 15:23:00,
2013-02-01 10:28:00,21.6,5.8,29.97,WNW,293,1.8,2.9,50,0.00,,,0.00,WUHU216HW,2013-02-01 15:28:00,
2013-02-01 10:33:00,21.6,5.3,29.97,WNW,293,0.9,2.9,49,0.00,,,0.00,WUHU216HW,2013-02-01 15:33:00,
2013-02-01 10:38:00,21.8,5.9,29.98,WNW,293,0.7,2.7,50,0.00,,,0.00,WUHU216HW,2013-02-01 15:38:00,
2013-02-01 10:43:00,23.4,8.3,29.98,WNW,293,0.2,2.7,52,0.00,,,0.00,WUHU216HW,2013-02-01 15:43:00,
2013-02-01 10:48:00,25.2,9.2,29.97,WNW,293,3.4,3.4,50,0.00,,,0.00,WUHU216HW,2013-02-01 15:48:00,
2013-02-01 10:53:00,24.5,6.6,29.98,WNW,293,0.4,3.4,46,0.00,,,0.00,WUHU216HW,2013-02-01 15:53:00,
2013-02-01 10:58:00,24.3,6.8,29.98,WNW,293,0.9,1.6,47,0.00,,,0.00,WUHU216HW,2013-02-01 15:58:00,
2013-02-01 11:03:00,24.1,6.8,29.97,WNW,293,0.2,1.1,47,0.00,,,0.00,WUHU216HW,2013-02-01 16:03:00,
2013-02-01 11:08:00,23.8,6.4,29.99,WNW,293,0.4,1.1,47,0.00,,,0.00,WUHU216HW,2013-02-01 16:08:00,
2013-02-01 11:13:00,23.6,6.2,30.00,WNW,293,2.2,2.2,47,0.00,,,0.00,WUHU216HW,2013-02-01 16:13:00,
2013-02-01 11:18:00,23.4,5.6,29.99,WNW,293,0.4,2.2,46,0.00,,,0.00,WUHU216HW,2013-02-01 16:18:00,
2013-02-01 11:23:00,23.6,6.2,29.99,WNW,293,1.8,1.8,47,0.00,,,0.00,WUHU216HW,2013-02-01 16:23:00,
2013-02-01 11:28:00,23.9,6.0,29.98,WNW,293,1.8,2.5,46,0.00,,,0.00,WUHU216HW,2013-02-01 16:28:00,
2013-02-01 11:33:00,24.1,5.2,30.01,WNW,293,2.5,2.5,44,0.00,,,0.00,WUHU216HW,2013-02-01 16:33:00,
2013-02-01 11:38:00,24.1,5.2,30.00,WNW,293,0.4,2.5,44,0.00,,,0.00,WUHU216HW,2013-02-01 16:38:00,
2013-02-01 11:43:00,24.3,5.4,30.05,WNW,293,1.1,1.8,44,0.00,,,0.00,WUHU216HW,2013-02-01 16:43:00,
2013-02-01 11:48:00,24.7,6.8,30.04,WNW,293,1.6,2.0,46,0.00,,,0.00,WUHU216HW,2013-02-01 16:48:00,
2013-02-01 11:53:00,24.8,6.4,30.04,WNW,293,1.3,2.0,45,0.00,,,0.00,WUHU216HW,2013-02-01 16:53:00,
2013-02-01 11:58:00,25.0,6.6,30.05,WNW,293,1.6,1.6,45,0.00,,,0.00,WUHU216HW,2013-02-01 16:58:00,
2013-02-01 12:03:00,24.8,6.4,30.05,WNW,293,1.1,1.6,45,0.00,,,0.00,WUHU216HW,2013-02-01 17:03:00,
2013-02-01 12:08:00,25.0,6.6,30.05,WNW,293,0.7,1.3,45,0.00,,,0.00,WUHU216HW,2013-02-01 17:08:00,
2013-02-01 12:13:00,25.0,6.6,30.04,WNW,293,0.4,1.8,45,0.00,,,0.00,WUHU216HW,2013-02-01 17:13:00,
2013-02-01 12:18:00,25.2,6.8,30.05,WNW,293,1.1,1.8,45,0.00,,,0.00,WUHU216HW,2013-02-01 17:18:00,
2013-02-01 12:23:00,25.2,6.8,30.04,WNW,293,0.4,2.0,45,0.00,,,0.00,WUHU216HW,2013-02-01 17:23:00,
2013-02-01 12:28:00,25.4,6.8,30.05,WNW,293,0.0,2.0,45,0.00,,,0.00,WUHU216HW,2013-02-01 17:28:00,
2013-02-01 12:33:00,25.7,7.2,30.05,WNW,293,1.1,1.8,45,0.00,,,0.00,WUHU216HW,2013-02-01 17:33:00,
2013-02-01 12:38:00,26.3,7.2,30.05,WNW,293,0.2,1.1,44,0.00,,,0.00,WUHU216HW,2013-02-01 17:38:00,
2013-02-01 12:43:00,27.0,8.4,30.05,NW,315,0.4,1.1,45,0.00,,,0.00,WUHU216HW,2013-02-01 17:43:00,
2013-02-01 12:48:00,27.9,9.2,30.05,NNW,338,1.8,1.8,45,0.00,,,0.00,WUHU216HW,2013-02-01 17:48:00,
2013-02-01 12:53:00,28.6,8.9,30.05,NW,315,0.9,1.8,43,0.00,,,0.00,WUHU216HW,2013-02-01 17:53:00,
2013-02-01 12:58:00,29.2,8.8,30.04,North,0,0.9,1.8,42,0.00,,,0.00,WUHU216HW,2013-02-01 17:58:00,
2013-02-01 13:03:00,29.7,9.4,30.06,West,270,0.4,0.9,42,0.00,,,0.00,WUHU216HW,2013-02-01 18:03:00,
2013-02-01 13:08:00,30.2,9.8,30.05,SW,225,0.0,1.1,42,0.00,,,0.00,WUHU216HW,2013-02-01 18:08:00,
2013-02-01 13:13:00,31.9,10.8,30.04,South,180,0.9,1.1,41,0.00,,,0.00,WUHU216HW,2013-02-01 18:13:00,
2013-02-01 13:18:00,33.8,13.6,30.05,ESE,113,0.4,0.9,43,0.00,,,0.00,WUHU216HW,2013-02-01 18:18:00,
2013-02-01 13:23:00,37.1,16.6,30.05,NW,315,0.0,0.9,43,0.00,,,0.00,WUHU216HW,2013-02-01 18:23:00,
2013-02-01 13:28:00,40.9,17.1,30.04,NW,315,0.4,0.9,38,0.00,,,0.00,WUHU216HW,2013-02-01 18:28:00,
2013-02-01 13:33:00,40.3,11.4,30.05,SSW,203,1.3,1.3,30,0.00,,,0.00,WUHU216HW,2013-02-01 18:33:00,
2013-02-01 13:38:00,36.9,10.3,30.04,East,90,0.4,2.2,33,0.00,,,0.00,WUHU216HW,2013-02-01 18:38:00,
2013-02-01 13:43:00,34.7,9.7,30.05,North,0,1.1,2.2,35,0.00,,,0.00,WUHU216HW,2013-02-01 18:43:00,
2013-02-01 13:48:00,32.9,8.7,30.05,WSW,248,0.2,1.1,36,0.00,,,0.00,WUHU216HW,2013-02-01 18:48:00,
2013-02-01 13:53:00,32.0,7.9,30.05,NNE,23,1.1,1.8,36,0.00,,,0.00,WUHU216HW,2013-02-01 18:53:00,
2013-02-01 13:58:00,30.8,6.1,30.05,WSW,248,1.8,1.8,35,0.00,,,0.00,WUHU216HW,2013-02-01 18:58:00,
2013-02-01 14:03:00,30.4,7.1,30.04,WNW,293,1.1,1.8,37,0.00,,,0.00,WUHU216HW,2013-02-01 19:03:00,
2013-02-01 14:08:00,30.6,7.3,30.04,ESE,113,1.1,1.8,37,0.00,,,0.00,WUHU216HW,2013-02-01 19:08:00,
2013-02-01 14:13:00,31.5,8.1,30.04,West,270,1.6,1.8,37,0.00,,,0.00,WUHU216HW,2013-02-01 19:13:00,
2013-02-01 14:18:00,31.7,8.2,30.05,North,0,0.4,1.8,37,0.00,,,0.00,WUHU216HW,2013-02-01 19:18:00,
2013-02-01 14:23:00,32.0,8.6,30.04,NNW,338,1.1,1.8,37,0.00,,,0.00,WUHU216HW,2013-02-01 19:23:00,
2013-02-01 14:28:00,31.9,8.4,30.05,SSW,203,0.7,2.0,37,0.00,,,0.00,WUHU216HW,2013-02-01 19:28:00,
2013-02-01 14:33:00,31.7,8.2,30.05,North,0,1.1,2.0,37,0.00,,,0.00,WUHU216HW,2013-02-01 19:33:00,
2013-02-01 14:38:00,32.2,9.4,30.04,NE,45,1.8,1.8,38,0.00,,,0.00,WUHU216HW,2013-02-01 19:38:00,
2013-02-01 14:43:00,32.8,8.6,30.04,NNE,23,0.9,1.8,36,0.00,,,0.00,WUHU216HW,2013-02-01 19:43:00,
2013-02-01 14:48:00,32.2,8.1,30.05,NNW,338,0.4,1.8,36,0.00,,,0.00,WUHU216HW,2013-02-01 19:48:00,
2013-02-01 14:53:00,32.4,7.7,30.05,West,270,2.5,2.5,35,0.00,,,0.00,WUHU216HW,2013-02-01 19:53:00,
2013-02-01 14:58:00,31.7,6.3,30.05,WNW,293,0.4,2.5,34,0.00,,,0.00,WUHU216HW,2013-02-01 19:58:00,
2013-02-01 15:03:00,32.6,9.0,30.06,NW,315,0.0,2.5,37,0.00,,,0.00,WUHU216HW,2013-02-01 20:03:00,
2013-02-01 15:08:00,34.6,11.4,30.05,East,90,0.2,0.4,38,0.00,,,0.00,WUHU216HW,2013-02-01 20:08:00,
2013-02-01 15:13:00,36.2,10.9,30.06,NNE,23,1.6,1.6,35,0.00,,,0.00,WUHU216HW,2013-02-01 20:13:00,
2013-02-01 15:18:00,35.6,9.2,30.04,NNE,23,0.0,1.6,33,0.00,,,0.00,WUHU216HW,2013-02-01 20:18:00,
2013-02-01 15:23:00,35.8,10.6,30.05,NNW,338,0.0,0.7,35,0.00,,,0.00,WUHU216HW,2013-02-01 20:23:00,
2013-02-01 15:28:00,35.6,9.2,30.05,WNW,293,0.0,1.3,33,0.00,,,0.00,WUHU216HW,2013-02-01 20:28:00,
2013-02-01 15:33:00,34.9,8.6,30.05,NW,315,0.0,1.3,33,0.00,,,0.00,WUHU216HW,2013-02-01 20:33:00,
2013-02-01 15:38:00,34.6,9.6,30.05,North,0,0.7,1.1,35,0.00,,,0.00,WUHU216HW,2013-02-01 20:38:00,
2013-02-01 15:43:00,33.8,7.7,30.05,NNE,23,0.4,1.6,33,0.00,,,0.00,WUHU216HW,2013-02-01 20:43:00,
2013-02-01 15:48:00,33.1,8.3,30.06,NW,315,0.4,1.6,35,0.00,,,0.00,WUHU216HW,2013-02-01 20:48:00,
2013-02-01 15:53:00,34.0,9.1,30.06,North,0,0.4,1.1,35,0.00,,,0.00,WUHU216HW,2013-02-01 20:53:00,
2013-02-01 15:58:00,34.6,9.6,30.06,WNW,293,0.4,1.1,35,0.00,,,0.00,WUHU216HW,2013-02-01 20:58:00,
2013-02-01 16:03:00,34.2,7.9,30.06,WNW,293,0.9,1.1,33,0.00,,,0.00,WUHU216HW,2013-02-01 21:03:00,
2013-02-01 16:08:00,34.4,8.1,30.07,West,270,0.0,1.1,33,0.00,,,0.00,WUHU216HW,2013-02-01 21:08:00,
2013-02-01 16:13:00,34.0,6.6,30.06,WNW,293,0.9,1.3,31,0.00,,,0.00,WUHU216HW,2013-02-01 21:13:00,
2013-02-01 16:18:00,33.3,7.2,30.07,WNW,293,0.2,1.3,33,0.00,,,0.00,WUHU216HW,2013-02-01 21:18:00,
2013-02-01 16:23:00,32.6,6.5,30.06,WSW,248,0.2,1.8,33,0.00,,,0.00,WUHU216HW,2013-02-01 21:23:00,
2013-02-01 16:28:00,32.0,6.0,30.07,South,180,0.2,1.8,33,0.00,,,0.00,WUHU216HW,2013-02-01 21:28:00,
2013-02-01 16:33:00,32.0,7.3,30.07,NNW,338,0.9,1.8,35,0.00,,,0.00,WUHU216HW,2013-02-01 21:33:00,
2013-02-01 16:38:00,31.7,6.9,30.07,NNE,23,0.4,0.9,35,0.00,,,0.00,WUHU216HW,2013-02-01 21:38:00,
2013-02-01 16:43:00,31.7,6.9,30.07,West,270,0.0,0.9,35,0.00,,,0.00,WUHU216HW,2013-02-01 21:43:00,
2013-02-01 16:48:00,31.7,6.9,30.07,North,0,0.2,1.6,35,0.00,,,0.00,WUHU216HW,2013-02-01 21:48:00,
2013-02-01 16:53:00,32.0,7.9,30.07,North,0,0.4,1.6,36,0.00,,,0.00,WUHU216HW,2013-02-01 21:53:00,
2013-02-01 16:58:00,32.6,8.4,30.07,WNW,293,0.0,0.4,36,0.00,,,0.00,WUHU216HW,2013-02-01 21:58:00,
2013-02-01 17:03:00,32.6,8.4,30.07,NW,315,0.0,0.2,36,0.00,,,0.00,WUHU216HW,2013-02-01 22:03:00,
2013-02-01 17:08:00,32.9,8.7,30.08,West,270,0.7,0.7,36,0.00,,,0.00,WUHU216HW,2013-02-01 22:08:00,
2013-02-01 17:13:00,32.8,7.9,30.08,NNE,23,0.2,0.7,35,0.00,,,0.00,WUHU216HW,2013-02-01 22:13:00,
2013-02-01 17:18:00,32.9,8.1,30.08,WSW,248,0.0,0.7,35,0.00,,,0.00,WUHU216HW,2013-02-01 22:18:00,
2013-02-01 17:23:00,32.9,8.1,30.08,NNW,338,0.0,0.7,35,0.00,,,0.00,WUHU216HW,2013-02-01 22:23:00,
2013-02-01 17:28:00,31.7,5.7,30.08,WNW,293,0.0,0.4,33,0.00,,,0.00,WUHU216HW,2013-02-01 22:28:00,
2013-02-01 17:33:00,30.6,6.0,30.09,North,0,0.4,0.4,35,0.00,,,0.00,WUHU216HW,2013-02-01 22:33:00,
2013-02-01 17:38:00,29.9,5.3,30.08,NW,315,0.4,0.4,35,0.00,,,0.00,WUHU216HW,2013-02-01 22:38:00,
2013-02-01 17:43:00,29.3,4.9,30.09,NW,315,0.0,0.4,35,0.00,,,0.00,WUHU216HW,2013-02-01 22:43:00,
2013-02-01 17:48:00,28.6,4.2,30.09,North,0,0.4,0.9,35,0.00,,,0.00,WUHU216HW,2013-02-01 22:48:00,
2013-02-01 17:53:00,27.9,3.6,30.08,NW,315,0.0,1.1,35,0.00,,,0.00,WUHU216HW,2013-02-01 22:53:00,
2013-02-01 17:58:00,27.7,4.1,30.08,NW,315,0.4,1.1,36,0.00,,,0.00,WUHU216HW,2013-02-01 22:58:00,
2013-02-01 18:03:00,27.4,4.3,30.08,NW,315,0.0,0.4,37,0.00,,,0.00,WUHU216HW,2013-02-01 23:03:00,
2013-02-01 18:08:00,27.0,4.1,30.08,SSW,203,0.0,0.4,37,0.00,,,0.00,WUHU216HW,2013-02-01 23:08:00,
2013-02-01 18:13:00,27.0,4.1,30.08,SSW,203,0.0,0.2,37,0.00,,,0.00,WUHU216HW,2013-02-01 23:13:00,
2013-02-01 18:18:00,26.8,4.5,30.08,SSW,203,0.0,0.2,38,0.00,,,0.00,WUHU216HW,2013-02-01 23:18:00,
2013-02-01 18:23:00,26.6,4.3,30.09,SSW,203,0.0,0.2,38,0.00,,,0.00,WUHU216HW,2013-02-01 23:23:00,
2013-02-01 18:28:00,26.3,2.2,30.10,SSW,203,0.4,0.7,35,0.00,,,0.00,WUHU216HW,2013-02-01 23:28:00,
2013-02-01 18:33:00,25.7,2.3,30.09,SSW,203,0.0,0.9,36,0.00,,,0.00,WUHU216HW,2013-02-01 23:33:00,
2013-02-01 18:38:00,25.6,3.3,30.08,SSW,203,0.4,0.9,38,0.00,,,0.00,WUHU216HW,2013-02-01 23:38:00,
2013-02-01 18:43:00,25.4,3.3,30.09,SSW,203,0.0,0.4,38,0.00,,,0.00,WUHU216HW,2013-02-01 23:43:00,
2013-02-01 18:48:00,25.4,3.3,30.10,SSW,203,0.0,0.0,38,0.00,,,0.00,WUHU216HW,2013-02-01 23:48:00,
2013-02-01 18:53:00,25.2,3.7,30.10,SSW,203,0.0,0.0,39,0.00,,,0.00,WUHU216HW,2013-02-01 23:53:00,
2013-02-01 18:58:00,25.2,3.7,30.10,SSW,203,0.0,0.0,39,0.00,,,0.00,WUHU216HW,2013-02-01 23:58:00,
2013-02-01 19:03:00,25.0,4.2,30.10,SSW,203,0.0,0.0,40,0.00,,,0.00,WUHU216HW,2013-02-02 00:03:00,
2013-02-01 19:08:00,24.8,4.0,30.10,SSW,203,0.0,0.0,40,0.00,,,0.00,WUHU216HW,2013-02-02 00:08:00,
2013-02-01 19:13:00,24.8,4.4,30.10,SSW,203,0.0,0.0,41,0.00,,,0.00,WUHU216HW,2013-02-02 00:13:00,
2013-02-01 19:18:00,24.5,4.6,30.10,SSW,203,0.0,0.0,42,0.00,,,0.00,WUHU216HW,2013-02-02 00:18:00,
2013-02-01 19:23:00,24.1,4.8,30.11,SSW,203,0.0,0.0,43,0.00,,,0.00,WUHU216HW,2013-02-02 00:23:00,
2013-02-01 19:28:00,23.8,5.0,30.11,SSW,203,0.0,0.0,44,0.00,,,0.00,WUHU216HW,2013-02-02 00:28:00,
2013-02-01 19:33:00,23.4,4.2,30.11,SSW,203,0.0,0.2,43,0.00,,,0.00,WUHU216HW,2013-02-02 00:33:00,
2013-02-01 19:38:00,23.4,3.6,30.11,SSW,203,0.0,0.2,42,0.00,,,0.00,WUHU216HW,2013-02-02 00:38:00,
2013-02-01 19:43:00,23.4,3.6,30.11,SSW,203,0.0,0.0,42,0.00,,,0.00,WUHU216HW,2013-02-02 00:43:00,
2013-02-01 19:48:00,23.4,3.6,30.10,SSW,203,0.0,0.0,42,0.00,,,0.00,WUHU216HW,2013-02-02 00:48:00,
2013-02-01 19:53:00,23.2,3.5,30.10,SSW,203,0.0,0.4,42,0.00,,,0.00,WUHU216HW,2013-02-02 00:53:00,
2013-02-01 19:58:00,23.0,3.3,30.11,SSW,203,0.4,0.4,42,0.00,,,0.00,WUHU216HW,2013-02-02 00:58:00,
2013-02-01 20:03:00,22.7,3.4,30.12,SSW,203,0.0,0.4,43,0.00,,,0.00,WUHU216HW,2013-02-02 01:03:00,
2013-02-01 20:08:00,22.7,3.4,30.11,SSW,203,0.0,0.4,43,0.00,,,0.00,WUHU216HW,2013-02-02 01:08:00,
2013-02-01 20:13:00,22.7,3.4,30.10,SSW,203,0.0,0.0,43,0.00,,,0.00,WUHU216HW,2013-02-02 01:13:00,
2013-02-01 20:18:00,22.7,3.4,30.11,SSW,203,0.0,0.0,43,0.00,,,0.00,WUHU216HW,2013-02-02 01:18:00,
2013-02-01 20:23:00,22.5,3.3,30.10,SSW,203,0.0,0.2,43,0.00,,,0.00,WUHU216HW,2013-02-02 01:23:00,
2013-02-01 20:28:00,22.5,3.8,30.11,SSW,203,0.0,0.2,44,0.00,,,0.00,WUHU216HW,2013-02-02 01:28:00,
2013-02-01 20:34:00,22.1,3.4,30.11,SSW,203,0.0,0.4,44,0.00,,,0.00,WUHU216HW,2013-02-02 01:34:00,
2013-02-01 20:39:00,22.1,3.4,30.12,SSW,203,0.0,0.4,44,0.00,,,0.00,WUHU216HW,2013-02-02 01:39:00,
2013-02-01 20:44:00,22.1,3.4,30.12,SSW,203,0.0,0.9,44,0.00,,,0.00,WUHU216HW,2013-02-02 01:44:00,
2013-02-01 20:49:00,22.0,3.2,30.11,SSW,203,0.0,0.9,44,0.00,,,0.00,WUHU216HW,2013-02-02 01:49:00,
2013-02-01 20:54:00,22.0,3.2,30.12,SSW,203,0.0,0.0,44,0.00,,,0.00,WUHU216HW,2013-02-02 01:54:00,
2013-02-01 20:59:00,22.0,3.2,30.11,SSW,203,0.0,0.0,44,0.00,,,0.00,WUHU216HW,2013-02-02 01:59:00,
2013-02-01 21:04:00,21.8,3.6,30.10,SSW,203,0.0,0.0,45,0.00,,,0.00,WUHU216HW,2013-02-02 02:04:00,
2013-02-01 21:09:00,21.8,3.6,30.11,SSW,203,0.0,0.0,45,0.00,,,0.00,WUHU216HW,2013-02-02 02:09:00,
2013-02-01 21:14:00,21.4,3.3,30.10,SSW,203,0.0,0.9,45,0.00,,,0.00,WUHU216HW,2013-02-02 02:14:00,
2013-02-01 21:19:00,21.2,3.5,30.11,SSW,203,0.0,0.9,46,0.00,,,0.00,WUHU216HW,2013-02-02 02:19:00,
2013-02-01 21:24:00,21.2,4.0,30.12,SSW,203,0.0,0.2,47,0.00,,,0.00,WUHU216HW,2013-02-02 02:24:00,
2013-02-01 21:29:00,21.2,3.5,30.12,SSW,203,0.0,0.2,46,0.00,,,0.00,WUHU216HW,2013-02-02 02:29:00,
2013-02-01 21:34:00,21.2,3.5,30.12,SSW,203,0.0,0.2,46,0.00,,,0.00,WUHU216HW,2013-02-02 02:34:00,
2013-02-01 21:39:00,21.2,4.0,30.12,SSW,203,0.0,0.2,47,0.00,,,0.00,WUHU216HW,2013-02-02 02:39:00,
2013-02-01 21:44:00,21.2,4.0,30.12,SSW,203,0.0,0.2,47,0.00,,,0.00,WUHU216HW,2013-02-02 02:44:00,
2013-02-01 21:49:00,21.2,4.0,30.12,SSW,203,0.0,0.0,47,0.00,,,0.00,WUHU216HW,2013-02-02 02:49:00,
2013-02-01 21:54:00,21.1,4.3,30.13,SSW,203,0.0,0.0,48,0.00,,,0.00,WUHU216HW,2013-02-02 02:54:00,
2013-02-01 21:59:00,20.9,4.1,30.12,SSW,203,0.0,0.0,48,0.00,,,0.00,WUHU216HW,2013-02-02 02:59:00,
2013-02-01 22:04:00,20.7,4.0,30.12,SSW,203,0.2,0.2,48,0.00,,,0.00,WUHU216HW,2013-02-02 03:04:00,
2013-02-01 22:09:00,20.7,3.5,30.12,SSW,203,0.0,0.2,47,0.00,,,0.00,WUHU216HW,2013-02-02 03:09:00,
2013-02-01 22:14:00,20.7,3.5,30.11,SSW,203,0.0,0.0,47,0.00,,,0.00,WUHU216HW,2013-02-02 03:14:00,
2013-02-01 22:19:00,20.7,3.5,30.12,SSW,203,0.0,0.4,47,0.00,,,0.00,WUHU216HW,2013-02-02 03:19:00,
2013-02-01 22:24:00,20.7,3.5,30.11,SSW,203,0.0,0.4,47,0.00,,,0.00,WUHU216HW,2013-02-02 03:24:00,
2013-02-01 22:29:00,20.7,4.0,30.11,SSW,203,0.0,0.0,48,0.00,,,0.00,WUHU216HW,2013-02-02 03:29:00,
2013-02-01 22:34:00,20.7,4.0,30.12,SSW,203,0.0,0.0,48,0.00,,,0.00,WUHU216HW,2013-02-02 03:34:00,
2013-02-01 22:39:00,20.5,3.8,30.12,SSW,203,0.0,0.0,48,0.00,,,0.00,WUHU216HW,2013-02-02 03:39:00,
2013-02-01 22:44:00,20.5,4.3,30.12,SSW,203,0.0,0.0,49,0.00,,,0.00,WUHU216HW,2013-02-02 03:44:00,
2013-02-01 22:49:00,20.5,4.3,30.14,SSW,203,0.0,0.0,49,0.00,,,0.00,WUHU216HW,2013-02-02 03:49:00,
2013-02-01 22:54:00,20.3,4.6,30.12,SSW,203,0.0,0.0,50,0.00,,,0.00,WUHU216HW,2013-02-02 03:54:00,
2013-02-01 22:59:00,20.3,4.6,30.11,SSW,203,0.0,0.0,50,0.00,,,0.00,WUHU216HW,2013-02-02 03:59:00,
2013-02-01 23:04:00,20.2,4.4,30.12,SSW,203,0.0,0.0,50,0.00,,,0.00,WUHU216HW,2013-02-02 04:04:00,
2013-02-01 23:09:00,20.0,4.7,30.11,SSW,203,0.0,0.0,51,0.00,,,0.00,WUHU216HW,2013-02-02 04:09:00,
2013-02-01 23:14:00,19.8,4.5,30.11,SSW,203,0.0,0.0,51,0.00,,,0.00,WUHU216HW,2013-02-02 04:14:00,
2013-02-01 23:19:00,19.8,4.5,30.11,SSW,203,0.0,0.0,51,0.00,,,0.00,WUHU216HW,2013-02-02 04:19:00,
2013-02-01 23:24:00,19.6,4.3,30.12,SSW,203,0.0,0.0,51,0.00,,,0.00,WUHU216HW,2013-02-02 04:24:00,
2013-02-01 23:29:00,19.4,4.1,30.12,SSW,203,0.0,0.0,51,0.00,,,0.00,WUHU216HW,2013-02-02 04:29:00,
2013-02-01 23:34:00,19.4,4.1,30.13,SSW,203,0.4,0.4,51,0.00,,,0.00,WUHU216HW,2013-02-02 04:34:00,
2013-02-01 23:39:00,19.4,3.8,30.13,SSW,203,0.4,0.4,50,0.00,,,0.00,WUHU216HW,2013-02-02 04:39:00,
2013-02-01 23:44:00,19.6,3.5,30.14,SSW,203,0.0,0.4,49,0.00,,,0.00,WUHU216HW,2013-02-02 04:44:00,
2013-02-01 23:49:00,19.8,3.2,30.13,SSW,203,0.0,0.2,48,0.00,,,0.00,WUHU216HW,2013-02-02 04:49:00,
2013-02-01 23:54:00,19.8,3.2,30.12,SSW,203,0.0,0.2,48,0.00,,,0.00,WUHU216HW,2013-02-02 04:54:00,
2013-02-01 23:59:00,19.8,3.2,30.11,SSW,203,0.0,0.0,48,0.00,,,0.00,WUHU216HW,2013-02-02 04:59:00,